Time;durP1;ratioP1;P1;durP2;ratioP2;P2;SDS_P1;SDS_P2;PMS_P1;PMS_P2;Temp;Humidity;BMP_temperature;BMP_pressure;BME280_temperature;BME280_humidity;BME280_pressure;Samples;Min_cycle;Max_cycle;Signal;HPM_P1;HPM_P2
2023/08/09 00:01:05;;;;;;;;;;;;;;;;;;4882255;29;19923;-85
2023/08/09 00:03:31;;;;;;;;;;;;;;;;;;4894952;29;19926;-86
2023/08/09 00:05:57;;;;;;;;;;;;;;;;;;4896001;29;20398;-86
2023/08/09 00:08:23;;;;;;;;;;;;;;;;;;4892188;29;19923;-85
2023/08/09 00:10:49;;;;;;;;;;;;;;;;;;4896735;29;19931;-86
2023/08/09 00:13:15;;;;;;;;;;;;;;;;;;4891974;29;19998;-86
2023/08/09 00:15:41;;;;;;;;;;;;;;;;;;4896570;29;20014;-86
2023/08/09 00:18:07;;;;;;;;;;;;;;;;;;4879361;29;19938;-86
2023/08/09 00:20:33;;;;;;;;;;;;;;;;;;4890189;29;19923;-86
2023/08/09 00:22:59;;;;;;;;;;;;;;;;;;4894812;29;19927;-86
2023/08/09 00:25:25;;;;;;;;;;;;;;;;;;4890026;29;20302;-86
2023/08/09 00:27:51;;;;;;;;;;;;;;;;;;4874972;29;19930;-86
2023/08/09 00:30:17;;;;;;;;;;;;;;;;;;4891896;29;20391;-86
2023/08/09 00:32:43;;;;;;;;;;;;;;;;;;4899682;29;20414;-86
2023/08/09 00:35:09;;;;;;;;;;;;;;;;;;4892221;29;19927;-86
2023/08/09 00:37:35;;;;;;;;;;;;;;;;;;4878911;29;19985;-86
2023/08/09 00:40:03;;;;;;;;;;;;;;;;;;4882196;29;20299;-86
2023/08/09 00:42:29;;;;;;;;;;;;;;;;;;4895640;29;19926;-86
2023/08/09 00:44:55;;;;;;;;;;;;;;;;;;4880089;29;20382;-85
2023/08/09 00:47:21;;;;;;;;;;;;;;;;;;4874014;29;20382;-86
2023/08/09 00:49:47;;;;;;;;;;;;;;;;;;4896698;29;20947;-86
2023/08/09 00:52:13;;;;;;;;;;;;;;;;;;4890531;29;19931;-86
2023/08/09 00:54:39;;;;;;;;;;;;;;;;;;4880079;29;20013;-86
2023/08/09 00:57:05;;;;;;;;;;;;;;;;;;4882519;29;19927;-86
2023/08/09 00:59:31;;;;;;;;;;;;;;;;;;4872247;29;21626;-86
2023/08/09 01:01:57;;;;;;;;;;;;;;;;;;4896262;29;20351;-86
2023/08/09 01:04:22;;;;;;;;;;;;;;;;;;4893790;29;20414;-86
2023/08/09 01:06:48;;;;;;;;;;;;;;;;;;4895805;29;20452;-86
2023/08/09 01:09:15;;;;;;;;;;;;;;;;;;4881545;29;20275;-86
2023/08/09 01:11:41;;;;;;;;;;;;;;;;;;4897508;29;19935;-86
2023/08/09 01:14:06;;;;;;;;;;;;;;;;;;4897117;29;19943;-85
2023/08/09 01:16:32;;;;;;;;;;;;;;;;;;4889322;29;19923;-86
2023/08/09 01:18:58;;;;;;;;;;;;;;;;;;4883855;29;20086;-85
2023/08/09 01:21:24;;;;;;;;;;;;;;;;;;4896989;29;19927;-86
2023/08/09 01:23:51;;;;;;;;;;;;;;;;;;4881029;29;19934;-86
2023/08/09 01:26:17;;;;;;;;;;;;;;;;;;4895478;29;19926;-86
2023/08/09 01:28:43;;;;;;;;;;;;;;;;;;4897789;29;19954;-86
2023/08/09 01:31:09;;;;;;;;;;;;;;;;;;4886570;29;19931;-87
2023/08/09 01:33:35;;;;;;;;;;;;;;;;;;4880474;29;19934;-87
2023/08/09 01:36:01;;;;;;;;;;;;;;;;;;4890254;29;19930;-87
2023/08/09 01:38:27;;;;;;;;;;;;;;;;;;4878789;29;20297;-86
2023/08/09 01:40:53;;;;;;;;;;;;;;;;;;4885574;29;19926;-86
2023/08/09 01:43:19;;;;;;;;;;;;;;;;;;4890799;29;19931;-86
2023/08/09 01:45:45;;;;;;;;;;;;;;;;;;4898032;29;20317;-87
2023/08/09 01:48:11;;;;;;;;;;;;;;;;;;4889231;29;20343;-86
2023/08/09 01:50:37;;;;;;;;;;;;;;;;;;4900513;29;20350;-87
2023/08/09 01:53:03;;;;;;;;;;;;;;;;;;4898306;29;19927;-86
2023/08/09 01:55:29;;;;;;;;;;;;;;;;;;4896560;29;19927;-86
2023/08/09 01:57:55;;;;;;;;;;;;;;;;;;4883736;29;19978;-86
2023/08/09 02:00:24;;;;;;;;;;;;;;;;;;4894308;29;19927;-86
2023/08/09 02:02:50;;;;;;;;;;;;;;;;;;4884060;29;20297;-87
2023/08/09 02:05:16;;;;;;;;;;;;;;;;;;4891307;29;20849;-86
2023/08/09 02:07:42;;;;;;;;;;;;;;;;;;4911687;29;20017;-86
2023/08/09 02:10:10;;;;;;;;;;;;;;;;;;4911696;29;19931;-86
2023/08/09 02:12:36;;;;;;;;;;;;;;;;;;4914912;29;19976;-86
2023/08/09 02:15:02;;;;;;;;;;;;;;;;;;4882057;29;20414;-86
2023/08/09 02:17:28;;;;;;;;;;;;;;;;;;4890175;29;20382;-86
2023/08/09 02:19:54;;;;;;;;;;;;;;;;;;4898201;29;20314;-86
2023/08/09 02:22:20;;;;;;;;;;;;;;;;;;4892075;29;19934;-86
2023/08/09 02:24:46;;;;;;;;;;;;;;;;;;4899733;29;19926;-86
2023/08/09 02:27:12;;;;;;;;;;;;;;;;;;4891255;29;20457;-86
2023/08/09 02:29:37;;;;;;;;;;;;;;;;;;4880382;29;20386;-86
2023/08/09 02:32:03;;;;;;;;;;;;;;;;;;4901030;29;19930;-86
2023/08/09 02:34:30;;;;;;;;;;;;;;;;;;4887554;29;21470;-86
2023/08/09 02:36:56;;;;;;;;;;;;;;;;;;4883341;29;19922;-86
2023/08/09 02:39:22;;;;;;;;;;;;;;;;;;4892788;29;19931;-86
2023/08/09 02:41:48;;;;;;;;;;;;;;;;;;4912503;29;19938;-86
2023/08/09 02:44:14;;;;;;;;;;;;;;;;;;4889996;29;19927;-86
2023/08/09 02:46:40;;;;;;;;;;;;;;;;;;4881502;29;19990;-86
2023/08/09 02:49:06;;;;;;;;;;;;;;;;;;4890013;29;19926;-86
2023/08/09 02:51:32;;;;;;;;;;;;;;;;;;4890962;29;20529;-86
2023/08/09 02:53:58;;;;;;;;;;;;;;;;;;4915606;28;19922;-85
2023/08/09 02:56:24;;;;;;;;;;;;;;;;;;4878401;29;20029;-86
2023/08/09 02:58:50;;;;;;;;;;;;;;;;;;4896436;29;20407;-86
2023/08/09 03:01:16;;;;;;;;;;;;;;;;;;4894235;29;19938;-86
2023/08/09 03:03:42;;;;;;;;;;;;;;;;;;4893836;29;19931;-86
2023/08/09 03:06:08;;;;;;;;;;;;;;;;;;4913918;29;20065;-86
2023/08/09 03:08:34;;;;;;;;;;;;;;;;;;4878790;29;19927;-86
2023/08/09 03:11:00;;;;;;;;;;;;;;;;;;4897528;29;20089;-86
2023/08/09 03:13:26;;;;;;;;;;;;;;;;;;4891512;29;19988;-86
2023/08/09 03:15:52;;;;;;;;;;;;;;;;;;4912392;29;19931;-86
2023/08/09 03:18:18;;;;;;;;;;;;;;;;;;4876694;29;19930;-86
2023/08/09 03:20:44;;;;;;;;;;;;;;;;;;4899413;29;19981;-86
2023/08/09 03:23:10;;;;;;;;;;;;;;;;;;4890360;29;20390;-86
2023/08/09 03:25:36;;;;;;;;;;;;;;;;;;4895026;29;20626;-86
2023/08/09 03:28:02;;;;;;;;;;;;;;;;;;4912468;28;19934;-86
2023/08/09 03:30:28;;;;;;;;;;;;;;;;;;4893750;29;19930;-86
2023/08/09 03:32:54;;;;;;;;;;;;;;;;;;4895550;29;19927;-86
2023/08/09 03:35:20;;;;;;;;;;;;;;;;;;4887634;29;19935;-86
2023/08/09 03:37:46;;;;;;;;;;;;;;;;;;4896080;29;20370;-86
2023/08/09 03:40:12;;;;;;;;;;;;;;;;;;4908991;29;19934;-86
2023/08/09 03:42:38;;;;;;;;;;;;;;;;;;4909346;29;19927;-86
2023/08/09 03:45:04;;;;;;;;;;;;;;;;;;4884324;29;19930;-86
2023/08/09 03:47:30;;;;;;;;;;;;;;;;;;4872019;29;20057;-86
2023/08/09 03:49:56;;;;;;;;;;;;;;;;;;4883628;29;19976;-86
2023/08/09 03:52:22;;;;;;;;;;;;;;;;;;4877812;29;19931;-86
2023/08/09 03:54:52;;;;;;;;;;;;;;;;;;4897719;29;19927;-86
2023/08/09 03:57:17;;;;;;;;;;;;;;;;;;4891147;29;19937;-86
2023/08/09 03:59:43;;;;;;;;;;;;;;;;;;4879743;29;19926;-86
2023/08/09 04:02:09;;;;;;;;;;;;;;;;;;4895190;29;20018;-86
2023/08/09 04:04:35;;;;;;;;;;;;;;;;;;4882882;29;19926;-86
2023/08/09 04:07:01;;;;;;;;;;;;;;;;;;4893329;29;21662;-86
2023/08/09 04:09:27;;;;;;;;;;;;;;;;;;4874016;29;19930;-86
2023/08/09 04:11:53;;;;;;;;;;;;;;;;;;4891591;29;19941;-86
2023/08/09 04:14:19;;;;;;;;;;;;;;;;;;4891945;29;19974;-87
2023/08/09 04:16:46;;;;;;;;;;;;;;;;;;4880164;29;19933;-86
2023/08/09 04:19:11;;;;;;;;;;;;;;;;;;4875488;29;19934;-86
2023/08/09 04:21:37;;;;;;;;;;;;;;;;;;4898623;29;19927;-86
2023/08/09 04:24:03;;;;;;;;;;;;;;;;;;4896351;29;19938;-86
2023/08/09 04:26:29;;;;;;;;;;;;;;;;;;4909760;29;20517;-87
2023/08/09 04:28:55;;;;;;;;;;;;;;;;;;4880111;29;19923;-86
2023/08/09 04:31:21;;;;;;;;;;;;;;;;;;4908273;28;20445;-86
2023/08/09 04:33:51;;;;;;;;;;;;;;;;;;4879536;29;19953;-86
2023/08/09 04:36:17;;;;;;;;;;;;;;;;;;4888392;29;19942;-86
2023/08/09 04:38:43;;;;;;;;;;;;;;;;;;4879994;29;19930;-87
2023/08/09 04:41:12;;;;;;;;;;;;;;;;;;4883162;29;19923;-87
2023/08/09 04:43:38;;;;;;;;;;;;;;;;;;4885160;29;19934;-86
2023/08/09 04:46:04;;;;;;;;;;;;;;;;;;4884125;29;20045;-86
2023/08/09 04:48:30;;;;;;;;;;;;;;;;;;4879048;29;21010;-86
2023/08/09 04:50:56;;;;;;;;;;;;;;;;;;4901588;29;20338;-86
2023/08/09 04:53:22;;;;;;;;;;;;;;;;;;4894018;29;19959;-86
2023/08/09 04:55:48;;;;;;;;;;;;;;;;;;4890081;29;19969;-87
2023/08/09 04:58:14;;;;;;;;;;;;;;;;;;4879127;29;19931;-87
2023/08/09 05:00:40;;;;;;;;;;;;;;;;;;4883992;29;19942;-86
2023/08/09 05:03:06;;;;;;;;;;;;;;;;;;4898224;29;19930;-86
2023/08/09 05:05:32;;;;;;;;;;;;;;;;;;4878579;29;19923;-86
2023/08/09 05:07:58;;;;;;;;;;;;;;;;;;4883129;29;19982;-86
2023/08/09 05:10:24;;;;;;;;;;;;;;;;;;4894047;29;19935;-87
2023/08/09 05:12:50;;;;;;;;;;;;;;;;;;4912121;29;19931;-87
2023/08/09 05:15:16;;;;;;;;;;;;;;;;;;4896574;29;19933;-86
2023/08/09 05:17:42;;;;;;;;;;;;;;;;;;4895702;29;19983;-86
2023/08/09 05:20:08;;;;;;;;;;;;;;;;;;4901613;29;19923;-86
2023/08/09 05:22:34;;;;;;;;;;;;;;;;;;4895277;29;19933;-86
2023/08/09 05:25:00;;;;;;;;;;;;;;;;;;4917040;29;19926;-86
2023/08/09 05:27:26;;;;;;;;;;;;;;;;;;4912450;29;19970;-86
2023/08/09 05:29:52;;;;;;;;;;;;;;;;;;4915708;29;19982;-87
2023/08/09 05:32:18;;;;;;;;;;;;;;;;;;4911719;29;20021;-87
2023/08/09 05:34:44;;;;;;;;;;;;;;;;;;4881704;29;19931;-86
2023/08/09 05:37:10;;;;;;;;;;;;;;;;;;4883486;29;19934;-87
2023/08/09 05:39:36;;;;;;;;;;;;;;;;;;4896815;29;20302;-86
2023/08/09 05:42:03;;;;;;;;;;;;;;;;;;4898807;29;19927;-86
2023/08/09 05:44:28;;;;;;;;;;;;;;;;;;4891163;29;19950;-87
2023/08/09 05:46:54;;;;;;;;;;;;;;;;;;4884528;29;20379;-86
2023/08/09 05:49:20;;;;;;;;;;;;;;;;;;4876025;29;19931;-87
2023/08/09 05:51:46;;;;;;;;;;;;;;;;;;4894519;29;21121;-86
2023/08/09 05:54:12;;;;;;;;;;;;;;;;;;4911321;29;20639;-87
2023/08/09 05:56:38;;;;;;;;;;;;;;;;;;4900571;29;19934;-86
2023/08/09 05:59:05;;;;;;;;;;;;;;;;;;4895996;29;20362;-87
2023/08/09 06:01:31;;;;;;;;;;;;;;;;;;4894853;29;19931;-87
2023/08/09 06:03:57;;;;;;;;;;;;;;;;;;4898225;29;19966;-87
2023/08/09 06:06:23;;;;;;;;;;;;;;;;;;4894809;29;19927;-87
2023/08/09 06:08:49;;;;;;;;;;;;;;;;;;4884193;29;20358;-87
2023/08/09 06:11:15;;;;;;;;;;;;;;;;;;4876573;29;19939;-87
2023/08/09 06:13:41;;;;;;;;;;;;;;;;;;4896740;29;19927;-87
2023/08/09 06:16:07;;;;;;;;;;;;;;;;;;4881380;29;19938;-87
2023/08/09 06:18:33;;;;;;;;;;;;;;;;;;4893157;29;20025;-87
2023/08/09 06:20:59;;;;;;;;;;;;;;;;;;4898264;29;20095;-87
2023/08/09 06:23:25;;;;;;;;;;;;;;;;;;4881383;29;19922;-86
2023/08/09 06:25:51;;;;;;;;;;;;;;;;;;4901850;29;19931;-87
2023/08/09 06:28:17;;;;;;;;;;;;;;;;;;4877064;29;20107;-86
2023/08/09 06:30:43;;;;;;;;;;;;;;;;;;4897194;29;19942;-86
2023/08/09 06:33:09;;;;;;;;;;;;;;;;;;4910533;29;19927;-87
2023/08/09 06:35:35;;;;;;;;;;;;;;;;;;4914000;29;20397;-86
2023/08/09 06:38:01;;;;;;;;;;;;;;;;;;4916494;29;19985;-86
2023/08/09 06:40:27;;;;;;;;;;;;;;;;;;4902949;29;19931;-87
2023/08/09 06:42:53;;;;;;;;;;;;;;;;;;4895617;29;19926;-87
2023/08/09 06:45:19;;;;;;;;;;;;;;;;;;4907627;29;20460;-86
2023/08/09 06:47:45;;;;;;;;;;;;;;;;;;4878248;29;20371;-86
2023/08/09 06:50:11;;;;;;;;;;;;;;;;;;4888634;29;19926;-87
2023/08/09 06:52:37;;;;;;;;;;;;;;;;;;4898110;29;19927;-87
2023/08/09 06:55:03;;;;;;;;;;;;;;;;;;4901171;29;19966;-86
2023/08/09 06:57:29;;;;;;;;;;;;;;;;;;4895841;29;19927;-86
2023/08/09 06:59:55;;;;;;;;;;;;;;;;;;4905506;29;19978;-87
2023/08/09 07:02:20;;;;;;;;;;;;;;;;;;4893800;29;19938;-86
2023/08/09 07:04:46;;;;;;;;;;;;;;;;;;4897509;29;20013;-87
2023/08/09 07:07:12;;;;;;;;;;;;;;;;;;4887979;29;19930;-86
2023/08/09 07:09:38;;;;;;;;;;;;;;;;;;4894659;29;20358;-86
2023/08/09 07:12:04;;;;;;;;;;;;;;;;;;4881336;29;20299;-86
2023/08/09 07:14:30;;;;;;;;;;;;;;;;;;4877626;29;19930;-86
2023/08/09 07:16:56;;;;;;;;;;;;;;;;;;4913476;29;19926;-86
2023/08/09 07:19:22;;;;;;;;;;;;;;;;;;4875590;29;19982;-86
2023/08/09 07:21:48;;;;;;;;;;;;;;;;;;4881673;29;20009;-86
2023/08/09 07:24:14;;;;;;;;;;;;;;;;;;4895256;29;19978;-87
2023/08/09 07:26:40;;;;;;;;;;;;;;;;;;4901907;29;20813;-87
2023/08/09 07:29:06;;;;;;;;;;;;;;;;;;4881420;29;19938;-87
2023/08/09 07:31:32;;;;;;;;;;;;;;;;;;4895618;29;20350;-86
2023/08/09 07:33:58;;;;;;;;;;;;;;;;;;4901036;29;20316;-87
2023/08/09 07:36:24;;;;;;;;;;;;;;;;;;4887393;29;19934;-86
2023/08/09 07:38:50;;;;;;;;;;;;;;;;;;4891323;29;19946;-86
2023/08/09 07:41:16;;;;;;;;;;;;;;;;;;4887527;29;19923;-87
2023/08/09 07:43:42;;;;;;;;;;;;;;;;;;4879606;29;19934;-87
2023/08/09 07:46:08;;;;;;;;;;;;;;;;;;4893673;29;19935;-87
2023/08/09 07:48:34;;;;;;;;;;;;;;;;;;4888448;29;19931;-87
2023/08/09 07:51:00;;;;;;;;;;;;;;;;;;4886062;29;19930;-87
2023/08/09 07:53:26;;;;;;;;;;;;;;;;;;4894083;29;19973;-87
2023/08/09 07:55:53;;;;;;;;;;;;;;;;;;4882140;29;19937;-87
2023/08/09 07:58:19;;;;;;;;;;;;;;;;;;4874429;29;19989;-87
2023/08/09 08:00:45;;;;;;;;;;;;;;;;;;4882592;29;20433;-86
2023/08/09 08:03:11;;;;;;;;;;;;;;;;;;4879028;29;19977;-87
2023/08/09 08:05:37;;;;;;;;;;;;;;;;;;4878896;29;20230;-87
2023/08/09 08:08:03;;;;;;;;;;;;;;;;;;4881591;29;19922;-87
2023/08/09 08:10:29;;;;;;;;;;;;;;;;;;4877583;29;21890;-87
2023/08/09 08:12:55;;;;;;;;;;;;;;;;;;4881712;29;19937;-87
2023/08/09 08:15:22;;;;;;;;;;;;;;;;;;4886558;29;19927;-87
2023/08/09 08:17:51;;;;;;;;;;;;;;;;;;4879112;29;19931;-87
2023/08/09 08:20:17;;;;;;;;;;;;;;;;;;4880147;29;20557;-87
2023/08/09 08:22:43;;;;;;;;;;;;;;;;;;4882268;29;19933;-87
2023/08/09 08:25:10;;;;;;;;;;;;;;;;;;4879566;29;19935;-87
2023/08/09 08:27:36;;;;;;;;;;;;;;;;;;4892755;29;19934;-87
2023/08/09 08:30:04;;;;;;;;;;;;;;;;;;4897314;29;19927;-86
2023/08/09 08:32:30;;;;;;;;;;;;;;;;;;4893974;29;21242;-87
2023/08/09 08:34:56;;;;;;;;;;;;;;;;;;4881558;29;19934;-87
2023/08/09 08:37:22;;;;;;;;;;;;;;;;;;4890232;29;19923;-86
2023/08/09 08:39:48;;;;;;;;;;;;;;;;;;4882560;29;19934;-87
2023/08/09 08:42:14;;;;;;;;;;;;;;;;;;4875305;29;20408;-87
2023/08/09 08:44:40;;;;;;;;;;;;;;;;;;4895761;29;19938;-87
2023/08/09 08:47:06;;;;;;;;;;;;;;;;;;4909062;29;20378;-87
2023/08/09 08:49:32;;;;;;;;;;;;;;;;;;4893591;29;19927;-88
2023/08/09 08:51:58;;;;;;;;;;;;;;;;;;4895195;29;19927;-88
2023/08/09 08:54:24;;;;;;;;;;;;;;;;;;4891375;29;19927;-87
2023/08/09 08:56:51;;;;;;;;;;;;;;;;;;4895405;29;19931;-88
2023/08/09 08:59:17;;;;;;;;;;;;;;;;;;4877471;29;20010;-87
2023/08/09 09:01:43;;;;;;;;;;;;;;;;;;4892982;29;19923;-87
2023/08/09 09:04:09;;;;;;;;;;;;;;;;;;4876804;29;19931;-87
2023/08/09 09:06:35;;;;;;;;;;;;;;;;;;4880032;29;19938;-87
2023/08/09 09:09:02;;;;;;;;;;;;;;;;;;4893558;29;19926;-87
2023/08/09 09:11:28;;;;;;;;;;;;;;;;;;4894589;29;20017;-87
2023/08/09 09:13:54;;;;;;;;;;;;;;;;;;4893880;29;20438;-87
2023/08/09 09:16:20;;;;;;;;;;;;;;;;;;4879702;29;20885;-88
2023/08/09 09:18:46;;;;;;;;;;;;;;;;;;4910655;29;20381;-87
2023/08/09 09:21:13;;;;;;;;;;;;;;;;;;4878284;29;19927;-88
2023/08/09 09:23:39;;;;;;;;;;;;;;;;;;4878592;29;19927;-87
2023/08/09 09:26:05;;;;;;;;;;;;;;;;;;4898105;29;19923;-87
2023/08/09 09:28:31;;;;;;;;;;;;;;;;;;4886328;29;20017;-87
2023/08/09 09:30:58;;;;;;;;;;;;;;;;;;4915449;29;20361;-88
2023/08/09 09:33:24;;;;;;;;;;;;;;;;;;4881173;29;19939;-88
2023/08/09 09:35:51;;;;;;;;;;;;;;;;;;4913650;29;20290;-87
2023/08/09 09:38:17;;;;;;;;;;;;;;;;;;4875998;29;20310;-88
2023/08/09 09:40:43;;;;;;;;;;;;;;;;;;4899502;29;19926;-87
2023/08/09 09:43:09;;;;;;;;;;;;;;;;;;4883725;29;20013;-88
2023/08/09 09:45:36;;;;;;;;;;;;;;;;;;4882458;29;19933;-88
2023/08/09 09:48:02;;;;;;;;;;;;;;;;;;4884578;29;19929;-88
2023/08/09 09:50:28;;;;;;;;;;;;;;;;;;4896101;29;19931;-87
2023/08/09 09:52:54;;;;;;;;;;;;;;;;;;4913267;29;19927;-87
2023/08/09 09:55:20;;;;;;;;;;;;;;;;;;4881181;29;19953;-87
2023/08/09 09:57:46;;;;;;;;;;;;;;;;;;4901270;29;19927;-87
2023/08/09 10:00:14;;;;;;;;;;;;;;;;;;4889143;29;20041;-87
2023/08/09 10:02:40;;;;;;;;;;;;;;;;;;4893659;29;20308;-87
2023/08/09 10:05:06;;;;;;;;;;;;;;;;;;4898559;29;19927;-87
2023/08/09 10:07:32;;;;;;;;;;;;;;;;;;4876540;29;19938;-87
2023/08/09 10:09:58;;;;;;;;;;;;;;;;;;4900417;29;19927;-87
2023/08/09 10:12:24;;;;;;;;;;;;;;;;;;4896446;29;19973;-87
2023/08/09 10:14:50;;;;;;;;;;;;;;;;;;4897347;29;19945;-87
2023/08/09 10:17:16;;;;;;;;;;;;;;;;;;4878280;29;20411;-87
2023/08/09 10:19:43;;;;;;;;;;;;;;;;;;4918290;29;20095;-87
2023/08/09 10:22:11;;;;;;;;;;;;;;;;;;4916135;29;19994;-87
2023/08/09 10:24:37;;;;;;;;;;;;;;;;;;4910425;29;19923;-87
2023/08/09 10:27:05;;;;;;;;;;;;;;;;;;4897962;29;20294;-87
2023/08/09 10:29:30;;;;;;;;;;;;;;;;;;4891418;29;19958;-87
2023/08/09 10:31:57;;;;;;;;;;;;;;;;;;4896176;29;19934;-87
2023/08/09 10:34:23;;;;;;;;;;;;;;;;;;4891112;29;19931;-87
2023/08/09 10:36:49;;;;;;;;;;;;;;;;;;4882295;29;19949;-87
2023/08/09 10:39:15;;;;;;;;;;;;;;;;;;4912909;29;20295;-87
2023/08/09 10:41:40;;;;;;;;;;;;;;;;;;4897077;29;20335;-87
2023/08/09 10:44:06;;;;;;;;;;;;;;;;;;4881861;29;19973;-87
2023/08/09 10:46:32;;;;;;;;;;;;;;;;;;4908052;29;19927;-87
2023/08/09 10:48:58;;;;;;;;;;;;;;;;;;4900942;29;19926;-88
2023/08/09 10:51:24;;;;;;;;;;;;;;;;;;4907678;29;20418;-87
2023/08/09 10:53:51;;;;;;;;;;;;;;;;;;4913146;29;20445;-87
2023/08/09 10:56:18;;;;;;;;;;;;;;;;;;4895858;29;19926;-87
2023/08/09 10:58:44;;;;;;;;;;;;;;;;;;4880370;29;19931;-88
2023/08/09 11:01:10;;;;;;;;;;;;;;;;;;4912109;29;19978;-88
2023/08/09 11:03:36;;;;;;;;;;;;;;;;;;4901405;29;19933;-87
2023/08/09 11:06:02;;;;;;;;;;;;;;;;;;4885466;29;19927;-87
2023/08/09 11:08:28;;;;;;;;;;;;;;;;;;4889228;29;20449;-87
2023/08/09 11:10:54;;;;;;;;;;;;;;;;;;4892396;29;19942;-87
2023/08/09 11:13:20;;;;;;;;;;;;;;;;;;4888982;29;19933;-87
2023/08/09 11:15:46;;;;;;;;;;;;;;;;;;4897547;29;19927;-87
2023/08/09 11:18:12;;;;;;;;;;;;;;;;;;4889656;29;19974;-88
2023/08/09 11:20:38;;;;;;;;;;;;;;;;;;4895450;29;19974;-87
2023/08/09 11:23:04;;;;;;;;;;;;;;;;;;4881087;29;19922;-87
2023/08/09 11:25:31;;;;;;;;;;;;;;;;;;4880691;29;21152;-87
2023/08/09 11:27:57;;;;;;;;;;;;;;;;;;4894938;29;19974;-87
2023/08/09 11:30:23;;;;;;;;;;;;;;;;;;4889808;29;20058;-87
2023/08/09 11:32:49;;;;;;;;;;;;;;;;;;4888664;29;19927;-87
2023/08/09 11:35:15;;;;;;;;;;;;;;;;;;4877599;29;19958;-88
2023/08/09 11:37:41;;;;;;;;;;;;;;;;;;4894027;29;19934;-87
2023/08/09 11:40:08;;;;;;;;;;;;;;;;;;4897774;29;20389;-87
2023/08/09 11:42:34;;;;;;;;;;;;;;;;;;4889605;29;20397;-88
2023/08/09 11:45:00;;;;;;;;;;;;;;;;;;4896058;29;19962;-87
2023/08/09 11:47:26;;;;;;;;;;;;;;;;;;4891965;29;20033;-88
2023/08/09 11:49:52;;;;;;;;;;;;;;;;;;4898527;29;19933;-87
2023/08/09 11:52:18;;;;;;;;;;;;;;;;;;4873992;29;20473;-87
2023/08/09 11:54:44;;;;;;;;;;;;;;;;;;4883281;29;20009;-87
2023/08/09 11:57:10;;;;;;;;;;;;;;;;;;4876984;29;19942;-88
2023/08/09 11:59:36;;;;;;;;;;;;;;;;;;4898671;29;19927;-88
2023/08/09 12:02:02;;;;;;;;;;;;;;;;;;4895938;29;20013;-89
2023/08/09 12:04:29;;;;;;;;;;;;;;;;;;4890383;29;19923;-87
2023/08/09 12:06:55;;;;;;;;;;;;;;;;;;4881144;29;19938;-88
2023/08/09 12:09:21;;;;;;;;;;;;;;;;;;4889960;29;19927;-88
2023/08/09 12:11:47;;;;;;;;;;;;;;;;;;4893852;29;19934;-88
2023/08/09 12:14:13;;;;;;;;;;;;;;;;;;4892891;29;19931;-88
2023/08/09 12:16:40;;;;;;;;;;;;;;;;;;4895342;29;19938;-87
2023/08/09 12:19:06;;;;;;;;;;;;;;;;;;4893530;29;20017;-87
2023/08/09 12:21:32;;;;;;;;;;;;;;;;;;4890222;29;21028;-87
2023/08/09 12:24:00;;;;;;;;;;;;;;;;;;4882528;29;19937;-87
2023/08/09 12:26:29;;;;;;;;;;;;;;;;;;4878656;29;19969;-88
2023/08/09 12:28:55;;;;;;;;;;;;;;;;;;4915114;29;20014;-87
2023/08/09 12:31:21;;;;;;;;;;;;;;;;;;4908674;29;19933;-87
2023/08/09 12:33:47;;;;;;;;;;;;;;;;;;4913350;29;19931;-87
2023/08/09 12:36:13;;;;;;;;;;;;;;;;;;4878152;29;20420;-87
2023/08/09 12:38:39;;;;;;;;;;;;;;;;;;4894871;29;19927;-87
2023/08/09 12:41:05;;;;;;;;;;;;;;;;;;4892468;29;19923;-87
2023/08/09 12:43:31;;;;;;;;;;;;;;;;;;4891523;29;19938;-87
2023/08/09 12:45:59;;;;;;;;;;;;;;;;;;4880873;29;19931;-87
2023/08/09 12:48:25;;;;;;;;;;;;;;;;;;4891312;29;19937;-87
2023/08/09 12:50:51;;;;;;;;;;;;;;;;;;4891518;29;19931;-87
2023/08/09 12:53:17;;;;;;;;;;;;;;;;;;4876841;29;20045;-88
2023/08/09 12:55:43;;;;;;;;;;;;;;;;;;4898613;29;19927;-87
2023/08/09 12:58:09;;;;;;;;;;;;;;;;;;4893181;29;19981;-87
2023/08/09 13:00:35;;;;;;;;;;;;;;;;;;4880307;29;19970;-87
2023/08/09 13:03:02;;;;;;;;;;;;;;;;;;4895083;29;20014;-87
2023/08/09 13:05:28;;;;;;;;;;;;;;;;;;4895276;29;19982;-87
2023/08/09 13:07:54;;;;;;;;;;;;;;;;;;4897239;29;19930;-87
2023/08/09 13:10:20;;;;;;;;;;;;;;;;;;4894011;29;19985;-88
2023/08/09 13:12:47;;;;;;;;;;;;;;;;;;4896278;29;20005;-87
2023/08/09 13:15:13;;;;;;;;;;;;;;;;;;4895274;29;19934;-88
2023/08/09 13:17:39;;;;;;;;;;;;;;;;;;4879854;29;20298;-87
2023/08/09 13:20:05;;;;;;;;;;;;;;;;;;4897715;29;19927;-87
2023/08/09 13:22:31;;;;;;;;;;;;;;;;;;4871972;29;19931;-88
2023/08/09 13:24:57;;;;;;;;;;;;;;;;;;4881621;29;19970;-85
2023/08/09 13:27:23;;;;;;;;;;;;;;;;;;4894033;29;20076;-87
2023/08/09 13:29:50;;;;;;;;;;;;;;;;;;4900270;29;19962;-88
2023/08/09 13:32:16;;;;;;;;;;;;;;;;;;4893772;29;20018;-87
2023/08/09 13:34:42;;;;;;;;;;;;;;;;;;4899531;29;19957;-87
2023/08/09 13:37:08;;;;;;;;;;;;;;;;;;4917280;29;19927;-87
2023/08/09 13:39:34;;;;;;;;;;;;;;;;;;4896410;29;19929;-87
2023/08/09 13:42:00;;;;;;;;;;;;;;;;;;4887932;29;20041;-87
2023/08/09 13:44:28;;;;;;;;;;;;;;;;;;4895645;29;20002;-88
2023/08/09 13:46:55;;;;;;;;;;;;;;;;;;4886616;29;19927;-87
2023/08/09 13:49:21;;;;;;;;;;;;;;;;;;4915204;29;20089;-88
2023/08/09 13:51:47;;;;;;;;;;;;;;;;;;4887297;29;20060;-87
2023/08/09 13:54:13;;;;;;;;;;;;;;;;;;4894828;29;20404;-88
2023/08/09 13:56:39;;;;;;;;;;;;;;;;;;4879896;29;19945;-88
2023/08/09 13:59:05;;;;;;;;;;;;;;;;;;4880662;29;20658;-87
2023/08/09 14:01:33;;;;;;;;;;;;;;;;;;4879658;29;20005;-87
2023/08/09 14:03:59;;;;;;;;;;;;;;;;;;4881878;29;19987;-88
2023/08/09 14:06:26;;;;;;;;;;;;;;;;;;4891545;29;19965;-88
2023/08/09 14:08:52;;;;;;;;;;;;;;;;;;4896698;29;19923;-88
2023/08/09 14:11:18;;;;;;;;;;;;;;;;;;4894966;29;20033;-88
2023/08/09 14:13:44;;;;;;;;;;;;;;;;;;4883579;29;20010;-88
2023/08/09 14:16:10;;;;;;;;;;;;;;;;;;4905537;29;19953;-88
2023/08/09 14:18:36;;;;;;;;;;;;;;;;;;4883711;29;19923;-87
2023/08/09 14:21:02;;;;;;;;;;;;;;;;;;4924543;29;19934;-87
2023/08/09 14:23:28;;;;;;;;;;;;;;;;;;4910604;29;19981;-88
2023/08/09 14:25:54;;;;;;;;;;;;;;;;;;4898343;29;19930;-88
2023/08/09 14:28:21;;;;;;;;;;;;;;;;;;4888433;29;19935;-88
2023/08/09 14:30:47;;;;;;;;;;;;;;;;;;4897438;29;19965;-88
2023/08/09 14:33:14;;;;;;;;;;;;;;;;;;4904988;29;20013;-88
2023/08/09 14:35:40;;;;;;;;;;;;;;;;;;4912064;29;19927;-88
2023/08/09 14:38:06;;;;;;;;;;;;;;;;;;4899207;29;19937;-88
2023/08/09 14:40:32;;;;;;;;;;;;;;;;;;4905933;29;19931;-88
2023/08/09 14:42:58;;;;;;;;;;;;;;;;;;4915772;29;19934;-89
2023/08/09 14:45:24;;;;;;;;;;;;;;;;;;4888107;29;20347;-88
2023/08/09 14:47:50;;;;;;;;;;;;;;;;;;4889692;29;20411;-89
2023/08/09 14:50:16;;;;;;;;;;;;;;;;;;4889208;29;19930;-89
2023/08/09 14:52:42;;;;;;;;;;;;;;;;;;4863063;29;20206;-89
2023/08/09 14:55:09;;;;;;;;;;;;;;;;;;4843127;29;19933;-87
2023/08/09 14:57:35;;;;;;;;;;;;;;;;;;4907899;29;20288;-87
2023/08/09 15:00:02;;;;;;;;;;;;;;;;;;4873961;29;19927;-88
2023/08/09 15:02:29;;;;;;;;;;;;;;;;;;4905838;29;20302;-87
2023/08/09 15:04:55;;;;;;;;;;;;;;;;;;4907178;29;19938;-87
2023/08/09 15:07:22;;;;;;;;;;;;;;;;;;4888161;29;19923;-88
2023/08/09 15:09:48;;;;;;;;;;;;;;;;;;4894504;29;19923;-87
2023/08/09 15:12:14;;;;;;;;;;;;;;;;;;4892620;29;19927;-88
2023/08/09 15:14:40;;;;;;;;;;;;;;;;;;4881864;29;19935;-87
2023/08/09 15:17:06;;;;;;;;;;;;;;;;;;4905562;29;19927;-87
2023/08/09 15:19:32;;;;;;;;;;;;;;;;;;4904679;29;19949;-88
2023/08/09 15:21:58;;;;;;;;;;;;;;;;;;4881467;29;19931;-88
2023/08/09 15:24:25;;;;;;;;;;;;;;;;;;4912547;29;20235;-88
2023/08/09 15:26:51;;;;;;;;;;;;;;;;;;4894994;29;19923;-88
2023/08/09 15:29:17;;;;;;;;;;;;;;;;;;4892066;29;20614;-88
2023/08/09 15:31:43;;;;;;;;;;;;;;;;;;4904199;23;19932;-89
2023/08/09 15:34:09;;;;;;;;;;;;;;;;;;4839019;29;20058;-91
2023/08/09 15:36:35;;;;;;;;;;;;;;;;;;4841494;29;19959;-91
2023/08/09 15:39:02;;;;;;;;;;;;;;;;;;4857732;29;20022;-91
2023/08/09 15:41:28;;;;;;;;;;;;;;;;;;4857487;29;20002;-91
2023/08/09 15:43:54;;;;;;;;;;;;;;;;;;4848479;29;20018;-90
2023/08/09 15:46:20;;;;;;;;;;;;;;;;;;4853248;29;19975;-92
2023/08/09 15:48:46;;;;;;;;;;;;;;;;;;4846048;29;19934;-92
2023/08/09 15:51:12;;;;;;;;;;;;;;;;;;4836592;29;20137;-92
2023/08/09 15:53:37;;;;;;;;;;;;;;;;;;4837530;29;19946;-89
2023/08/09 15:56:03;;;;;;;;;;;;;;;;;;4856718;29;20600;-88
2023/08/09 15:58:29;;;;;;;;;;;;;;;;;;4852964;29;20692;-88
2023/08/09 16:00:55;;;;;;;;;;;;;;;;;;4876947;29;20310;-88
2023/08/09 16:03:23;;;;;;;;;;;;;;;;;;4844559;29;19956;-88
2023/08/09 16:05:49;;;;;;;;;;;;;;;;;;4852917;29;19960;-88
2023/08/09 16:08:16;;;;;;;;;;;;;;;;;;4854043;29;19928;-89
2023/08/09 16:10:42;;;;;;;;;;;;;;;;;;4855517;29;19938;-89
2023/08/09 16:13:08;;;;;;;;;;;;;;;;;;4859237;29;19924;-89
2023/08/09 16:15:34;;;;;;;;;;;;;;;;;;4844300;29;20285;-89
2023/08/09 16:18:00;;;;;;;;;;;;;;;;;;4856221;29;20355;-89
2023/08/09 16:20:26;;;;;;;;;;;;;;;;;;4856853;29;19924;-89
2023/08/09 16:22:52;;;;;;;;;;;;;;;;;;4838954;29;19991;-89
2023/08/09 16:25:20;;;;;;;;;;;;;;;;;;4833364;29;20107;-88
2023/08/09 16:27:46;;;;;;;;;;;;;;;;;;4853108;29;19932;-87
2023/08/09 16:30:13;;;;;;;;;;;;;;;;;;4837232;29;19969;-90
2023/08/09 16:32:39;;;;;;;;;;;;;;;;;;4849250;29;20224;-88
2023/08/09 16:35:06;;;;;;;;;;;;;;;;;;4858638;29;19927;-89
2023/08/09 16:37:34;;;;;;;;;;;;;;;;;;4854279;29;19947;-89